sensor_id;sensor_type;location;lat;lon;timestamp;P1;durP1;ratioP1;P2;durP2;ratioP2
28926;SDS011;16038;47.692;9.400;2024-01-30T00:00:35;40.70;;;13.55;;
28926;SDS011;16038;47.692;9.400;2024-01-30T00:03:00;50.38;;;14.15;;
28926;SDS011;16038;47.692;9.400;2024-01-30T00:05:26;95.43;;;13.95;;
28926;SDS011;16038;47.692;9.400;2024-01-30T00:07:51;131.27;;;14.45;;
28926;SDS011;16038;47.692;9.400;2024-01-30T00:10:16;39.58;;;12.93;;
28926;SDS011;16038;47.692;9.400;2024-01-30T00:12:42;32.40;;;13.07;;
28926;SDS011;16038;47.692;9.400;2024-01-30T00:15:07;38.28;;;16.67;;
28926;SDS011;16038;47.692;9.400;2024-01-30T00:17:35;33.53;;;13.30;;
28926;SDS011;16038;47.692;9.400;2024-01-30T00:20:02;39.90;;;12.10;;
28926;SDS011;16038;47.692;9.400;2024-01-30T00:22:30;41.55;;;11.50;;
28926;SDS011;16038;47.692;9.400;2024-01-30T00:24:58;44.13;;;12.35;;
28926;SDS011;16038;47.692;9.400;2024-01-30T00:27:23;57.00;;;13.30;;
28926;SDS011;16038;47.692;9.400;2024-01-30T00:29:49;36.33;;;12.05;;
28926;SDS011;16038;47.692;9.400;2024-01-30T00:32:14;33.40;;;12.55;;
28926;SDS011;16038;47.692;9.400;2024-01-30T00:34:41;29.65;;;12.75;;
28926;SDS011;16038;47.692;9.400;2024-01-30T00:37:07;33.88;;;11.50;;
28926;SDS011;16038;47.692;9.400;2024-01-30T00:39:32;37.58;;;12.50;;
28926;SDS011;16038;47.692;9.400;2024-01-30T00:41:58;42.63;;;12.80;;
28926;SDS011;16038;47.692;9.400;2024-01-30T00:44:23;39.40;;;11.75;;
28926;SDS011;16038;47.692;9.400;2024-01-30T00:46:49;38.13;;;10.93;;
28926;SDS011;16038;47.692;9.400;2024-01-30T00:49:14;44.30;;;11.52;;
28926;SDS011;16038;47.692;9.400;2024-01-30T00:51:39;32.20;;;10.50;;
28926;SDS011;16038;47.692;9.400;2024-01-30T00:54:05;28.80;;;10.60;;
28926;SDS011;16038;47.692;9.400;2024-01-30T00:56:31;62.42;;;10.95;;
28926;SDS011;16038;47.692;9.400;2024-01-30T00:58:57;144.65;;;12.95;;
28926;SDS011;16038;47.692;9.400;2024-01-30T01:01:22;35.47;;;10.80;;
28926;SDS011;16038;47.692;9.400;2024-01-30T01:03:48;23.02;;;9.23;;
28926;SDS011;16038;47.692;9.400;2024-01-30T01:06:13;17.52;;;9.93;;
28926;SDS011;16038;47.692;9.400;2024-01-30T01:08:39;32.40;;;10.13;;
28926;SDS011;16038;47.692;9.400;2024-01-30T01:11:04;20.67;;;9.60;;
28926;SDS011;16038;47.692;9.400;2024-01-30T01:13:30;33.03;;;9.77;;
28926;SDS011;16038;47.692;9.400;2024-01-30T01:15:55;35.97;;;10.25;;
28926;SDS011;16038;47.692;9.400;2024-01-30T01:18:20;32.42;;;10.27;;
28926;SDS011;16038;47.692;9.400;2024-01-30T01:20:46;32.08;;;10.45;;
28926;SDS011;16038;47.692;9.400;2024-01-30T01:23:11;28.92;;;9.90;;
28926;SDS011;16038;47.692;9.400;2024-01-30T01:25:37;92.43;;;12.05;;
28926;SDS011;16038;47.692;9.400;2024-01-30T01:28:02;56.80;;;10.90;;
28926;SDS011;16038;47.692;9.400;2024-01-30T01:30:28;60.03;;;10.40;;
28926;SDS011;16038;47.692;9.400;2024-01-30T01:32:54;26.30;;;10.15;;
28926;SDS011;16038;47.692;9.400;2024-01-30T01:35:26;28.38;;;10.07;;
28926;SDS011;16038;47.692;9.400;2024-01-30T01:37:52;45.17;;;11.15;;
28926;SDS011;16038;47.692;9.400;2024-01-30T01:40:23;34.83;;;10.57;;
28926;SDS011;16038;47.692;9.400;2024-01-30T01:42:52;62.47;;;11.63;;
28926;SDS011;16038;47.692;9.400;2024-01-30T01:45:19;21.33;;;9.88;;
28926;SDS011;16038;47.692;9.400;2024-01-30T01:47:45;44.28;;;11.60;;
28926;SDS011;16038;47.692;9.400;2024-01-30T01:50:13;43.53;;;11.05;;
28926;SDS011;16038;47.692;9.400;2024-01-30T01:52:44;103.20;;;11.80;;
28926;SDS011;16038;47.692;9.400;2024-01-30T01:55:11;57.03;;;11.77;;
28926;SDS011;16038;47.692;9.400;2024-01-30T01:57:38;21.73;;;11.48;;
28926;SDS011;16038;47.692;9.400;2024-01-30T02:00:03;55.33;;;11.65;;
28926;SDS011;16038;47.692;9.400;2024-01-30T02:02:35;38.13;;;11.73;;
28926;SDS011;16038;47.692;9.400;2024-01-30T02:05:01;91.07;;;13.20;;
28926;SDS011;16038;47.692;9.400;2024-01-30T02:07:28;53.30;;;12.95;;
28926;SDS011;16038;47.692;9.400;2024-01-30T02:09:54;75.40;;;12.88;;
28926;SDS011;16038;47.692;9.400;2024-01-30T02:12:20;85.13;;;13.02;;
28926;SDS011;16038;47.692;9.400;2024-01-30T02:14:48;67.00;;;12.88;;
28926;SDS011;16038;47.692;9.400;2024-01-30T02:17:15;86.15;;;13.32;;
28926;SDS011;16038;47.692;9.400;2024-01-30T02:19:41;28.42;;;11.55;;
28926;SDS011;16038;47.692;9.400;2024-01-30T02:22:06;32.50;;;12.27;;
28926;SDS011;16038;47.692;9.400;2024-01-30T02:24:32;30.90;;;11.75;;
28926;SDS011;16038;47.692;9.400;2024-01-30T02:26:58;24.35;;;12.13;;
28926;SDS011;16038;47.692;9.400;2024-01-30T02:29:23;146.00;;;16.38;;
28926;SDS011;16038;47.692;9.400;2024-01-30T02:31:48;36.55;;;11.98;;
28926;SDS011;16038;47.692;9.400;2024-01-30T02:34:14;157.70;;;15.80;;
28926;SDS011;16038;47.692;9.400;2024-01-30T02:36:42;89.97;;;15.13;;
28926;SDS011;16038;47.692;9.400;2024-01-30T02:39:08;104.60;;;15.50;;
28926;SDS011;16038;47.692;9.400;2024-01-30T02:41:34;73.35;;;15.57;;
28926;SDS011;16038;47.692;9.400;2024-01-30T02:44:00;111.28;;;18.98;;
28926;SDS011;16038;47.692;9.400;2024-01-30T02:46:26;113.20;;;17.83;;
28926;SDS011;16038;47.692;9.400;2024-01-30T02:48:51;40.85;;;15.10;;
28926;SDS011;16038;47.692;9.400;2024-01-30T02:51:17;58.15;;;16.27;;
28926;SDS011;16038;47.692;9.400;2024-01-30T02:53:42;30.67;;;14.55;;
28926;SDS011;16038;47.692;9.400;2024-01-30T02:56:07;68.10;;;14.77;;
28926;SDS011;16038;47.692;9.400;2024-01-30T02:58:38;24.17;;;13.45;;
28926;SDS011;16038;47.692;9.400;2024-01-30T03:01:04;41.65;;;12.52;;
28926;SDS011;16038;47.692;9.400;2024-01-30T03:03:30;33.53;;;13.68;;
28926;SDS011;16038;47.692;9.400;2024-01-30T03:05:55;107.45;;;14.43;;
28926;SDS011;16038;47.692;9.400;2024-01-30T03:08:20;302.67;;;20.92;;
28926;SDS011;16038;47.692;9.400;2024-01-30T03:10:46;172.65;;;16.67;;
28926;SDS011;16038;47.692;9.400;2024-01-30T03:13:11;157.38;;;15.27;;
28926;SDS011;16038;47.692;9.400;2024-01-30T03:15:37;332.80;;;20.00;;
28926;SDS011;16038;47.692;9.400;2024-01-30T03:18:02;27.23;;;13.15;;
28926;SDS011;16038;47.692;9.400;2024-01-30T03:20:31;84.47;;;17.53;;
28926;SDS011;16038;47.692;9.400;2024-01-30T03:22:56;73.13;;;16.52;;
28926;SDS011;16038;47.692;9.400;2024-01-30T03:25:22;62.78;;;15.57;;
28926;SDS011;16038;47.692;9.400;2024-01-30T03:27:47;26.50;;;12.98;;
28926;SDS011;16038;47.692;9.400;2024-01-30T03:30:12;27.48;;;13.25;;
28926;SDS011;16038;47.692;9.400;2024-01-30T03:32:38;25.42;;;13.70;;
28926;SDS011;16038;47.692;9.400;2024-01-30T03:35:03;23.98;;;12.85;;
28926;SDS011;16038;47.692;9.400;2024-01-30T03:37:29;21.90;;;12.50;;
28926;SDS011;16038;47.692;9.400;2024-01-30T03:39:54;23.33;;;13.50;;
28926;SDS011;16038;47.692;9.400;2024-01-30T03:42:20;22.45;;;13.50;;
28926;SDS011;16038;47.692;9.400;2024-01-30T03:44:46;184.98;;;18.08;;
28926;SDS011;16038;47.692;9.400;2024-01-30T03:47:11;81.72;;;14.82;;
28926;SDS011;16038;47.692;9.400;2024-01-30T03:49:37;62.63;;;15.98;;
28926;SDS011;16038;47.692;9.400;2024-01-30T03:52:02;145.23;;;17.75;;
28926;SDS011;16038;47.692;9.400;2024-01-30T03:54:28;24.50;;;13.82;;
28926;SDS011;16038;47.692;9.400;2024-01-30T03:56:53;28.45;;;15.13;;
28926;SDS011;16038;47.692;9.400;2024-01-30T03:59:19;50.08;;;16.92;;
28926;SDS011;16038;47.692;9.400;2024-01-30T04:01:49;61.63;;;17.48;;
28926;SDS011;16038;47.692;9.400;2024-01-30T04:04:15;167.75;;;19.75;;
28926;SDS011;16038;47.692;9.400;2024-01-30T04:06:42;33.13;;;16.52;;
28926;SDS011;16038;47.692;9.400;2024-01-30T04:09:07;35.83;;;16.90;;
28926;SDS011;16038;47.692;9.400;2024-01-30T04:11:32;123.57;;;18.58;;
28926;SDS011;16038;47.692;9.400;2024-01-30T04:13:58;26.38;;;14.55;;
28926;SDS011;16038;47.692;9.400;2024-01-30T04:16:23;118.85;;;19.45;;
28926;SDS011;16038;47.692;9.400;2024-01-30T04:18:49;27.35;;;15.57;;
28926;SDS011;16038;47.692;9.400;2024-01-30T04:21:14;136.93;;;17.23;;
28926;SDS011;16038;47.692;9.400;2024-01-30T04:23:40;135.48;;;18.70;;
28926;SDS011;16038;47.692;9.400;2024-01-30T04:26:06;96.97;;;16.67;;
28926;SDS011;16038;47.692;9.400;2024-01-30T04:28:32;139.70;;;17.38;;
28926;SDS011;16038;47.692;9.400;2024-01-30T04:30:57;25.65;;;14.50;;
28926;SDS011;16038;47.692;9.400;2024-01-30T04:33:22;62.63;;;13.75;;
28926;SDS011;16038;47.692;9.400;2024-01-30T04:35:48;86.88;;;16.30;;
28926;SDS011;16038;47.692;9.400;2024-01-30T04:38:13;33.70;;;12.52;;
28926;SDS011;16038;47.692;9.400;2024-01-30T04:40:39;19.70;;;12.25;;
28926;SDS011;16038;47.692;9.400;2024-01-30T04:43:05;26.23;;;12.68;;
28926;SDS011;16038;47.692;9.400;2024-01-30T04:45:30;33.47;;;12.38;;
28926;SDS011;16038;47.692;9.400;2024-01-30T04:47:56;32.05;;;11.82;;
28926;SDS011;16038;47.692;9.400;2024-01-30T04:50:22;32.88;;;12.10;;
28926;SDS011;16038;47.692;9.400;2024-01-30T04:52:48;29.75;;;10.52;;
28926;SDS011;16038;47.692;9.400;2024-01-30T04:55:13;17.55;;;8.90;;
28926;SDS011;16038;47.692;9.400;2024-01-30T04:57:39;24.20;;;9.35;;
28926;SDS011;16038;47.692;9.400;2024-01-30T05:00:04;15.43;;;8.48;;
28926;SDS011;16038;47.692;9.400;2024-01-30T05:02:31;16.45;;;9.65;;
28926;SDS011;16038;47.692;9.400;2024-01-30T05:04:56;12.35;;;7.63;;
28926;SDS011;16038;47.692;9.400;2024-01-30T05:07:22;19.20;;;8.80;;
28926;SDS011;16038;47.692;9.400;2024-01-30T05:09:47;15.85;;;8.77;;
28926;SDS011;16038;47.692;9.400;2024-01-30T05:12:13;15.85;;;9.10;;
28926;SDS011;16038;47.692;9.400;2024-01-30T05:14:39;17.50;;;8.73;;
28926;SDS011;16038;47.692;9.400;2024-01-30T05:17:04;21.85;;;8.02;;
28926;SDS011;16038;47.692;9.400;2024-01-30T05:19:29;57.15;;;8.00;;
28926;SDS011;16038;47.692;9.400;2024-01-30T05:21:55;103.00;;;8.85;;
28926;SDS011;16038;47.692;9.400;2024-01-30T05:24:20;86.20;;;10.88;;
28926;SDS011;16038;47.692;9.400;2024-01-30T05:26:45;46.42;;;7.72;;
28926;SDS011;16038;47.692;9.400;2024-01-30T05:29:12;89.45;;;9.77;;
28926;SDS011;16038;47.692;9.400;2024-01-30T05:31:37;13.38;;;7.45;;
28926;SDS011;16038;47.692;9.400;2024-01-30T05:34:03;28.48;;;8.88;;
28926;SDS011;16038;47.692;9.400;2024-01-30T05:36:28;16.55;;;9.18;;
28926;SDS011;16038;47.692;9.400;2024-01-30T05:38:53;36.08;;;9.35;;
28926;SDS011;16038;47.692;9.400;2024-01-30T05:41:19;16.38;;;9.65;;
28926;SDS011;16038;47.692;9.400;2024-01-30T05:43:46;15.18;;;8.68;;
28926;SDS011;16038;47.692;9.400;2024-01-30T05:46:11;16.85;;;9.30;;
28926;SDS011;16038;47.692;9.400;2024-01-30T05:48:37;16.55;;;9.05;;
28926;SDS011;16038;47.692;9.400;2024-01-30T05:51:02;23.75;;;10.40;;
28926;SDS011;16038;47.692;9.400;2024-01-30T05:53:29;34.40;;;9.60;;
28926;SDS011;16038;47.692;9.400;2024-01-30T05:55:54;15.40;;;8.48;;
28926;SDS011;16038;47.692;9.400;2024-01-30T05:58:20;13.63;;;7.90;;
28926;SDS011;16038;47.692;9.400;2024-01-30T06:00:46;27.85;;;8.90;;
28926;SDS011;16038;47.692;9.400;2024-01-30T06:03:12;13.95;;;8.90;;
28926;SDS011;16038;47.692;9.400;2024-01-30T06:05:37;14.48;;;8.82;;
28926;SDS011;16038;47.692;9.400;2024-01-30T06:08:02;13.35;;;8.05;;
28926;SDS011;16038;47.692;9.400;2024-01-30T06:10:28;38.83;;;9.32;;
28926;SDS011;16038;47.692;9.400;2024-01-30T06:12:53;18.83;;;8.00;;
28926;SDS011;16038;47.692;9.400;2024-01-30T06:15:19;20.00;;;8.80;;
28926;SDS011;16038;47.692;9.400;2024-01-30T06:17:44;53.53;;;9.35;;
28926;SDS011;16038;47.692;9.400;2024-01-30T06:20:10;46.85;;;8.52;;
28926;SDS011;16038;47.692;9.400;2024-01-30T06:22:35;60.17;;;10.05;;
28926;SDS011;16038;47.692;9.400;2024-01-30T06:25:00;37.38;;;9.68;;
28926;SDS011;16038;47.692;9.400;2024-01-30T06:27:26;46.58;;;11.02;;
28926;SDS011;16038;47.692;9.400;2024-01-30T06:29:52;49.70;;;10.48;;
28926;SDS011;16038;47.692;9.400;2024-01-30T06:32:17;30.38;;;11.05;;
28926;SDS011;16038;47.692;9.400;2024-01-30T06:34:42;29.33;;;11.07;;
28926;SDS011;16038;47.692;9.400;2024-01-30T06:37:09;24.65;;;11.27;;
28926;SDS011;16038;47.692;9.400;2024-01-30T06:39:35;123.97;;;15.07;;
28926;SDS011;16038;47.692;9.400;2024-01-30T06:42:00;72.60;;;15.00;;
28926;SDS011;16038;47.692;9.400;2024-01-30T06:44:25;86.78;;;16.88;;
28926;SDS011;16038;47.692;9.400;2024-01-30T06:46:51;111.43;;;18.00;;
28926;SDS011;16038;47.692;9.400;2024-01-30T06:49:16;87.90;;;18.38;;
28926;SDS011;16038;47.692;9.400;2024-01-30T06:51:42;91.18;;;17.42;;
28926;SDS011;16038;47.692;9.400;2024-01-30T06:54:07;113.03;;;16.27;;
28926;SDS011;16038;47.692;9.400;2024-01-30T06:56:33;32.58;;;16.05;;
28926;SDS011;16038;47.692;9.400;2024-01-30T06:58:59;60.70;;;17.48;;
28926;SDS011;16038;47.692;9.400;2024-01-30T07:01:28;76.15;;;16.40;;
28926;SDS011;16038;47.692;9.400;2024-01-30T07:06:19;76.57;;;15.97;;
28926;SDS011;16038;47.692;9.400;2024-01-30T07:08:45;36.20;;;16.55;;
28926;SDS011;16038;47.692;9.400;2024-01-30T07:11:17;31.42;;;15.25;;
28926;SDS011;16038;47.692;9.400;2024-01-30T07:13:43;115.88;;;18.20;;
28926;SDS011;16038;47.692;9.400;2024-01-30T07:16:09;38.53;;;16.70;;
28926;SDS011;16038;47.692;9.400;2024-01-30T07:18:34;183.23;;;20.98;;
28926;SDS011;16038;47.692;9.400;2024-01-30T07:20:59;72.55;;;17.42;;
28926;SDS011;16038;47.692;9.400;2024-01-30T07:23:25;128.93;;;20.38;;
28926;SDS011;16038;47.692;9.400;2024-01-30T07:25:51;96.60;;;18.67;;
28926;SDS011;16038;47.692;9.400;2024-01-30T07:28:16;114.63;;;20.63;;
28926;SDS011;16038;47.692;9.400;2024-01-30T07:30:42;118.07;;;20.42;;
28926;SDS011;16038;47.692;9.400;2024-01-30T07:33:08;119.60;;;20.27;;
28926;SDS011;16038;47.692;9.400;2024-01-30T07:35:34;69.07;;;22.02;;
28926;SDS011;16038;47.692;9.400;2024-01-30T07:37:59;70.55;;;22.02;;
28926;SDS011;16038;47.692;9.400;2024-01-30T07:40:25;131.95;;;23.60;;
28926;SDS011;16038;47.692;9.400;2024-01-30T07:42:50;124.28;;;25.70;;
28926;SDS011;16038;47.692;9.400;2024-01-30T07:45:19;120.20;;;23.63;;
28926;SDS011;16038;47.692;9.400;2024-01-30T07:47:48;104.22;;;22.42;;
28926;SDS011;16038;47.692;9.400;2024-01-30T07:50:14;135.23;;;26.98;;
28926;SDS011;16038;47.692;9.400;2024-01-30T07:52:39;161.15;;;21.90;;
28926;SDS011;16038;47.692;9.400;2024-01-30T07:55:05;169.32;;;22.30;;
28926;SDS011;16038;47.692;9.400;2024-01-30T07:57:32;194.68;;;31.67;;
28926;SDS011;16038;47.692;9.400;2024-01-30T07:59:59;151.40;;;25.98;;
28926;SDS011;16038;47.692;9.400;2024-01-30T08:02:24;206.65;;;24.55;;
28926;SDS011;16038;47.692;9.400;2024-01-30T08:04:50;75.10;;;32.08;;
28926;SDS011;16038;47.692;9.400;2024-01-30T08:07:15;75.57;;;24.58;;
28926;SDS011;16038;47.692;9.400;2024-01-30T08:09:42;156.90;;;21.67;;
28926;SDS011;16038;47.692;9.400;2024-01-30T08:12:08;200.35;;;23.77;;
28926;SDS011;16038;47.692;9.400;2024-01-30T08:14:33;177.25;;;26.63;;
28926;SDS011;16038;47.692;9.400;2024-01-30T08:16:58;148.68;;;29.67;;
28926;SDS011;16038;47.692;9.400;2024-01-30T08:19:24;283.45;;;30.33;;
28926;SDS011;16038;47.692;9.400;2024-01-30T08:21:49;223.75;;;26.48;;
28926;SDS011;16038;47.692;9.400;2024-01-30T08:24:15;268.73;;;26.15;;
28926;SDS011;16038;47.692;9.400;2024-01-30T08:26:40;88.95;;;24.23;;
28926;SDS011;16038;47.692;9.400;2024-01-30T08:29:06;245.68;;;31.63;;
28926;SDS011;16038;47.692;9.400;2024-01-30T08:31:31;130.82;;;19.58;;
28926;SDS011;16038;47.692;9.400;2024-01-30T08:33:57;67.57;;;18.95;;
28926;SDS011;16038;47.692;9.400;2024-01-30T08:36:22;170.18;;;23.60;;
28926;SDS011;16038;47.692;9.400;2024-01-30T08:38:47;63.25;;;30.60;;
28926;SDS011;16038;47.692;9.400;2024-01-30T08:41:13;97.88;;;23.90;;
28926;SDS011;16038;47.692;9.400;2024-01-30T08:43:38;138.85;;;22.02;;
28926;SDS011;16038;47.692;9.400;2024-01-30T08:46:03;104.07;;;20.23;;
28926;SDS011;16038;47.692;9.400;2024-01-30T08:48:29;41.42;;;17.73;;
28926;SDS011;16038;47.692;9.400;2024-01-30T08:50:54;86.03;;;19.33;;
28926;SDS011;16038;47.692;9.400;2024-01-30T08:53:20;44.50;;;18.95;;
28926;SDS011;16038;47.692;9.400;2024-01-30T08:55:45;62.13;;;18.15;;
28926;SDS011;16038;47.692;9.400;2024-01-30T08:58:10;66.57;;;17.38;;
28926;SDS011;16038;47.692;9.400;2024-01-30T09:00:36;99.28;;;18.17;;
28926;SDS011;16038;47.692;9.400;2024-01-30T09:03:02;41.90;;;14.25;;
28926;SDS011;16038;47.692;9.400;2024-01-30T09:05:28;55.75;;;15.65;;
28926;SDS011;16038;47.692;9.400;2024-01-30T09:07:54;42.65;;;12.52;;
28926;SDS011;16038;47.692;9.400;2024-01-30T09:10:19;49.63;;;15.82;;
28926;SDS011;16038;47.692;9.400;2024-01-30T09:12:45;39.08;;;15.55;;
28926;SDS011;16038;47.692;9.400;2024-01-30T09:15:11;43.78;;;15.23;;
28926;SDS011;16038;47.692;9.400;2024-01-30T09:17:36;32.92;;;15.80;;
28926;SDS011;16038;47.692;9.400;2024-01-30T09:20:02;39.28;;;15.65;;
28926;SDS011;16038;47.692;9.400;2024-01-30T09:22:28;30.83;;;15.00;;
28926;SDS011;16038;47.692;9.400;2024-01-30T09:24:53;53.00;;;13.32;;
28926;SDS011;16038;47.692;9.400;2024-01-30T09:27:18;72.63;;;13.10;;
28926;SDS011;16038;47.692;9.400;2024-01-30T09:29:44;86.25;;;15.13;;
28926;SDS011;16038;47.692;9.400;2024-01-30T09:32:09;34.72;;;17.50;;
28926;SDS011;16038;47.692;9.400;2024-01-30T09:34:35;46.50;;;13.25;;
28926;SDS011;16038;47.692;9.400;2024-01-30T09:37:00;27.63;;;13.32;;
28926;SDS011;16038;47.692;9.400;2024-01-30T09:39:26;32.80;;;15.38;;
28926;SDS011;16038;47.692;9.400;2024-01-30T09:41:55;37.08;;;14.38;;
28926;SDS011;16038;47.692;9.400;2024-01-30T09:44:28;30.38;;;13.52;;
28926;SDS011;16038;47.692;9.400;2024-01-30T09:46:55;23.85;;;12.50;;
28926;SDS011;16038;47.692;9.400;2024-01-30T09:49:20;21.83;;;12.23;;
28926;SDS011;16038;47.692;9.400;2024-01-30T09:51:49;39.10;;;12.50;;
28926;SDS011;16038;47.692;9.400;2024-01-30T09:54:15;39.38;;;11.65;;
28926;SDS011;16038;47.692;9.400;2024-01-30T09:56:41;26.17;;;11.93;;
28926;SDS011;16038;47.692;9.400;2024-01-30T09:59:06;22.45;;;11.80;;
28926;SDS011;16038;47.692;9.400;2024-01-30T10:01:32;22.70;;;12.68;;
28926;SDS011;16038;47.692;9.400;2024-01-30T10:03:59;22.98;;;12.57;;
28926;SDS011;16038;47.692;9.400;2024-01-30T10:06:25;19.15;;;10.80;;
28926;SDS011;16038;47.692;9.400;2024-01-30T10:08:51;21.70;;;11.02;;
28926;SDS011;16038;47.692;9.400;2024-01-30T10:11:17;19.13;;;11.02;;
28926;SDS011;16038;47.692;9.400;2024-01-30T10:13:42;16.75;;;10.63;;
28926;SDS011;16038;47.692;9.400;2024-01-30T10:16:07;38.33;;;10.27;;
28926;SDS011;16038;47.692;9.400;2024-01-30T10:18:33;24.88;;;10.07;;
28926;SDS011;16038;47.692;9.400;2024-01-30T10:20:58;17.00;;;10.10;;
28926;SDS011;16038;47.692;9.400;2024-01-30T10:23:24;22.88;;;9.77;;
28926;SDS011;16038;47.692;9.400;2024-01-30T10:25:51;29.83;;;10.60;;
28926;SDS011;16038;47.692;9.400;2024-01-30T10:28:17;18.42;;;11.27;;
28926;SDS011;16038;47.692;9.400;2024-01-30T10:30:42;15.00;;;9.38;;
28926;SDS011;16038;47.692;9.400;2024-01-30T10:33:08;14.07;;;9.10;;
28926;SDS011;16038;47.692;9.400;2024-01-30T10:35:34;15.90;;;9.70;;
28926;SDS011;16038;47.692;9.400;2024-01-30T10:38:00;41.75;;;11.63;;
28926;SDS011;16038;47.692;9.400;2024-01-30T10:40:29;16.35;;;9.82;;
28926;SDS011;16038;47.692;9.400;2024-01-30T10:42:55;17.67;;;9.68;;
28926;SDS011;16038;47.692;9.400;2024-01-30T10:45:21;23.50;;;10.07;;
28926;SDS011;16038;47.692;9.400;2024-01-30T10:47:48;16.20;;;9.18;;
28926;SDS011;16038;47.692;9.400;2024-01-30T10:50:15;25.92;;;9.07;;
28926;SDS011;16038;47.692;9.400;2024-01-30T10:52:41;14.60;;;9.38;;
28926;SDS011;16038;47.692;9.400;2024-01-30T10:55:08;15.65;;;9.18;;
28926;SDS011;16038;47.692;9.400;2024-01-30T10:57:35;14.80;;;9.55;;
28926;SDS011;16038;47.692;9.400;2024-01-30T11:00:02;21.50;;;10.45;;
28926;SDS011;16038;47.692;9.400;2024-01-30T11:02:42;16.33;;;9.57;;
28926;SDS011;16038;47.692;9.400;2024-01-30T11:05:09;18.63;;;9.60;;
28926;SDS011;16038;47.692;9.400;2024-01-30T11:07:35;15.32;;;9.68;;
28926;SDS011;16038;47.692;9.400;2024-01-30T11:10:03;17.55;;;10.52;;
28926;SDS011;16038;47.692;9.400;2024-01-30T11:12:30;21.55;;;10.80;;
28926;SDS011;16038;47.692;9.400;2024-01-30T11:20:21;22.92;;;9.15;;
28926;SDS011;16038;47.692;9.400;2024-01-30T11:22:53;17.02;;;9.70;;
28926;SDS011;16038;47.692;9.400;2024-01-30T11:25:20;17.00;;;10.15;;
28926;SDS011;16038;47.692;9.400;2024-01-30T11:27:46;14.88;;;10.05;;
28926;SDS011;16038;47.692;9.400;2024-01-30T11:33:04;20.77;;;11.60;;
28926;SDS011;16038;47.692;9.400;2024-01-30T11:35:35;17.85;;;10.57;;
28926;SDS011;16038;47.692;9.400;2024-01-30T11:38:02;19.30;;;11.75;;
28926;SDS011;16038;47.692;9.400;2024-01-30T11:40:29;21.90;;;12.40;;
28926;SDS011;16038;47.692;9.400;2024-01-30T11:42:56;20.55;;;11.23;;
28926;SDS011;16038;47.692;9.400;2024-01-30T11:45:23;25.73;;;12.52;;
28926;SDS011;16038;47.692;9.400;2024-01-30T11:47:52;22.38;;;12.32;;
28926;SDS011;16038;47.692;9.400;2024-01-30T11:50:18;28.92;;;12.00;;
28926;SDS011;16038;47.692;9.400;2024-01-30T11:52:44;17.77;;;11.20;;
28926;SDS011;16038;47.692;9.400;2024-01-30T11:55:10;23.63;;;11.18;;
28926;SDS011;16038;47.692;9.400;2024-01-30T11:57:35;24.70;;;11.55;;
28926;SDS011;16038;47.692;9.400;2024-01-30T12:00:04;19.30;;;11.40;;
28926;SDS011;16038;47.692;9.400;2024-01-30T12:02:38;26.63;;;11.80;;
28926;SDS011;16038;47.692;9.400;2024-01-30T12:05:04;20.65;;;12.68;;
28926;SDS011;16038;47.692;9.400;2024-01-30T12:07:33;26.40;;;12.55;;
28926;SDS011;16038;47.692;9.400;2024-01-30T12:09:59;23.05;;;13.18;;
28926;SDS011;16038;47.692;9.400;2024-01-30T12:12:25;32.50;;;12.75;;
28926;SDS011;16038;47.692;9.400;2024-01-30T12:14:51;20.35;;;12.75;;
28926;SDS011;16038;47.692;9.400;2024-01-30T12:17:49;20.27;;;11.65;;
28926;SDS011;16038;47.692;9.400;2024-01-30T12:20:09;19.38;;;12.75;;
28926;SDS011;16038;47.692;9.400;2024-01-30T12:22:40;25.48;;;13.52;;
28926;SDS011;16038;47.692;9.400;2024-01-30T12:25:10;22.70;;;12.40;;
28926;SDS011;16038;47.692;9.400;2024-01-30T12:27:36;21.00;;;12.75;;
28926;SDS011;16038;47.692;9.400;2024-01-30T12:30:06;22.73;;;12.63;;
28926;SDS011;16038;47.692;9.400;2024-01-30T12:32:44;22.40;;;13.48;;
28926;SDS011;16038;47.692;9.400;2024-01-30T12:35:14;25.73;;;14.00;;
28926;SDS011;16038;47.692;9.400;2024-01-30T12:37:42;23.73;;;14.07;;
28926;SDS011;16038;47.692;9.400;2024-01-30T12:40:09;26.90;;;13.95;;
28926;SDS011;16038;47.692;9.400;2024-01-30T12:42:35;44.63;;;15.32;;
28926;SDS011;16038;47.692;9.400;2024-01-30T12:45:03;36.80;;;14.32;;
28926;SDS011;16038;47.692;9.400;2024-01-30T12:47:30;31.08;;;14.65;;
28926;SDS011;16038;47.692;9.400;2024-01-30T12:49:55;30.52;;;14.77;;
28926;SDS011;16038;47.692;9.400;2024-01-30T12:52:21;22.20;;;13.45;;
28926;SDS011;16038;47.692;9.400;2024-01-30T12:54:47;30.08;;;15.73;;
28926;SDS011;16038;47.692;9.400;2024-01-30T12:57:13;27.27;;;14.05;;
28926;SDS011;16038;47.692;9.400;2024-01-30T12:59:39;25.88;;;14.52;;
28926;SDS011;16038;47.692;9.400;2024-01-30T13:02:04;28.27;;;15.98;;
28926;SDS011;16038;47.692;9.400;2024-01-30T13:04:30;26.58;;;14.60;;
28926;SDS011;16038;47.692;9.400;2024-01-30T13:06:56;38.80;;;14.75;;
28926;SDS011;16038;47.692;9.400;2024-01-30T13:09:22;25.90;;;15.07;;
28926;SDS011;16038;47.692;9.400;2024-01-30T13:11:47;32.25;;;14.95;;
28926;SDS011;16038;47.692;9.400;2024-01-30T13:14:12;25.30;;;14.98;;
28926;SDS011;16038;47.692;9.400;2024-01-30T13:16:38;33.10;;;15.63;;
28926;SDS011;16038;47.692;9.400;2024-01-30T13:19:03;29.23;;;15.93;;
28926;SDS011;16038;47.692;9.400;2024-01-30T13:21:29;38.70;;;16.80;;
28926;SDS011;16038;47.692;9.400;2024-01-30T13:23:54;28.98;;;15.82;;
28926;SDS011;16038;47.692;9.400;2024-01-30T13:26:20;25.95;;;14.95;;
28926;SDS011;16038;47.692;9.400;2024-01-30T13:28:46;29.75;;;14.85;;
28926;SDS011;16038;47.692;9.400;2024-01-30T13:31:12;29.75;;;15.18;;
28926;SDS011;16038;47.692;9.400;2024-01-30T13:33:39;29.35;;;16.77;;
28926;SDS011;16038;47.692;9.400;2024-01-30T13:36:05;31.25;;;15.88;;
28926;SDS011;16038;47.692;9.400;2024-01-30T13:38:31;30.00;;;15.32;;
28926;SDS011;16038;47.692;9.400;2024-01-30T13:40:56;34.20;;;17.13;;
28926;SDS011;16038;47.692;9.400;2024-01-30T13:43:21;41.20;;;16.67;;
28926;SDS011;16038;47.692;9.400;2024-01-30T13:45:47;48.42;;;18.95;;
28926;SDS011;16038;47.692;9.400;2024-01-30T13:48:12;33.55;;;17.35;;
28926;SDS011;16038;47.692;9.400;2024-01-30T13:50:38;37.40;;;17.95;;
28926;SDS011;16038;47.692;9.400;2024-01-30T13:53:03;39.55;;;19.85;;
28926;SDS011;16038;47.692;9.400;2024-01-30T13:55:29;35.97;;;16.13;;
28926;SDS011;16038;47.692;9.400;2024-01-30T13:57:55;26.88;;;16.10;;
28926;SDS011;16038;47.692;9.400;2024-01-30T14:00:21;36.42;;;17.65;;
28926;SDS011;16038;47.692;9.400;2024-01-30T14:02:48;28.23;;;16.00;;
28926;SDS011;16038;47.692;9.400;2024-01-30T14:05:13;71.07;;;21.55;;
28926;SDS011;16038;47.692;9.400;2024-01-30T14:07:39;30.90;;;17.50;;
28926;SDS011;16038;47.692;9.400;2024-01-30T14:10:06;30.38;;;16.70;;
28926;SDS011;16038;47.692;9.400;2024-01-30T14:12:31;79.28;;;18.08;;
28926;SDS011;16038;47.692;9.400;2024-01-30T14:14:57;70.45;;;19.55;;
28926;SDS011;16038;47.692;9.400;2024-01-30T14:17:22;35.88;;;19.70;;
28926;SDS011;16038;47.692;9.400;2024-01-30T14:19:47;29.67;;;18.27;;
28926;SDS011;16038;47.692;9.400;2024-01-30T14:22:13;28.90;;;17.23;;
28926;SDS011;16038;47.692;9.400;2024-01-30T14:24:38;36.65;;;18.58;;